RPC1303 RPLL-RPLL
Flight info
| Callsign | RPC1303 |
|---|---|
| Flight time | 0h 7m |
| Altitude | 500 |
| Route | RPLL RPLL |
| Aircraft | C152/L-VGD/A |
Departure
| Time | 2026-05-04 15:48 |
|---|---|
| Airport | Ninoy Aquino International Airport (RPLL) |
Arrival
| Time | 2026-05-04 15:56 |
|---|---|
| Airport | Ninoy Aquino International Airport (RPLL) |
| Time | Latitude | Longitude | Altitude | Speed | Heading |
|---|---|---|---|---|---|
| 2026-05-04 15:38 | 14.51793 | 121.00585 | 76 ft | 0 kts | 334° |
| 2026-05-04 15:43 | 14.51801 | 121.00582 | 76 ft | 1 kts | 335° |
| 2026-05-04 15:44 | 14.51834 | 121.00575 | 77 ft | 10 kts | 17° |
| 2026-05-04 15:44 | 14.51916 | 121.00600 | 76 ft | 15 kts | 13° |
| 2026-05-04 15:44 | 14.52023 | 121.00620 | 77 ft | 12 kts | 13° |
| 2026-05-04 15:44 | 14.52049 | 121.00624 | 76 ft | 0 kts | 6° |
| 2026-05-04 15:46 | 14.52053 | 121.00625 | 77 ft | 4 kts | 10° |
| 2026-05-04 15:46 | 14.52096 | 121.00634 | 77 ft | 9 kts | 21° |
| 2026-05-04 15:47 | 14.52091 | 121.00690 | 77 ft | 0 kts | 131° |
| 2026-05-04 15:47 | 14.52082 | 121.00701 | 77 ft | 15 kts | 129° |
| 2026-05-04 15:47 | 14.51851 | 121.00935 | 109 ft | 66 kts | 131° |
| 2026-05-04 15:47 | 14.51534 | 121.01276 | 263 ft | 67 kts | 129° |
| 2026-05-04 15:48 | 14.51200 | 121.01631 | 417 ft | 68 kts | 128° |
| 2026-05-04 15:48 | 14.50860 | 121.01978 | 541 ft | 72 kts | 129° |
| 2026-05-04 15:48 | 14.50053 | 121.02729 | 859 ft | 80 kts | 142° |
| 2026-05-04 15:49 | 14.49455 | 121.02851 | 992 ft | 95 kts | 191° |
| 2026-05-04 15:49 | 14.49004 | 121.02297 | 1025 ft | 111 kts | 239° |
| 2026-05-04 15:49 | 14.48612 | 121.01572 | 1002 ft | 118 kts | 239° |
| 2026-05-04 15:49 | 14.48189 | 121.00823 | 996 ft | 120 kts | 237° |
| 2026-05-04 15:50 | 14.47965 | 121.00020 | 951 ft | 122 kts | 283° |
| 2026-05-04 15:50 | 14.48549 | 120.99480 | 884 ft | 114 kts | 352° |
| 2026-05-04 15:50 | 14.49249 | 120.99119 | 894 ft | 115 kts | 328° |
| 2026-05-04 15:50 | 14.49880 | 120.98609 | 912 ft | 114 kts | 322° |
| 2026-05-04 15:51 | 14.50474 | 120.98061 | 902 ft | 116 kts | 319° |
| 2026-05-04 15:51 | 14.51067 | 120.97497 | 898 ft | 116 kts | 319° |
| 2026-05-04 15:51 | 14.51633 | 120.96950 | 1034 ft | 108 kts | 315° |
| 2026-05-04 15:51 | 14.52046 | 120.96335 | 1074 ft | 114 kts | 313° |
| 2026-05-04 15:52 | 14.52631 | 120.95782 | 964 ft | 121 kts | 324° |
| 2026-05-04 15:52 | 14.53302 | 120.95326 | 981 ft | 108 kts | 334° |
| 2026-05-04 15:52 | 14.53996 | 120.94922 | 847 ft | 115 kts | 329° |
| 2026-05-04 15:52 | 14.54652 | 120.94426 | 681 ft | 121 kts | 324° |
| 2026-05-04 15:53 | 14.55377 | 120.94057 | 640 ft | 107 kts | 360° |
| 2026-05-04 15:53 | 14.55973 | 120.94367 | 700 ft | 97 kts | 53° |
| 2026-05-04 15:53 | 14.56363 | 120.94984 | 612 ft | 104 kts | 55° |
| 2026-05-04 15:53 | 14.56749 | 120.95586 | 623 ft | 101 kts | 71° |
| 2026-05-04 15:54 | 14.56564 | 120.96268 | 588 ft | 105 kts | 122° |
| 2026-05-04 15:54 | 14.55987 | 120.96747 | 559 ft | 106 kts | 138° |
| 2026-05-04 15:54 | 14.55443 | 120.97255 | 526 ft | 105 kts | 131° |
| 2026-05-04 15:54 | 14.54925 | 120.97783 | 516 ft | 104 kts | 131° |
| 2026-05-04 15:55 | 14.54402 | 120.98311 | 469 ft | 106 kts | 131° |
| 2026-05-04 15:55 | 14.53869 | 120.98862 | 377 ft | 109 kts | 131° |
| 2026-05-04 15:55 | 14.53340 | 120.99407 | 291 ft | 105 kts | 132° |
| 2026-05-04 15:55 | 14.52834 | 120.99918 | 268 ft | 88 kts | 131° |
| 2026-05-04 15:56 | 14.52446 | 121.00318 | 163 ft | 74 kts | 130° |
| 2026-05-04 15:56 | 14.52102 | 121.00678 | 88 ft | 65 kts | 131° |
| 2026-05-04 15:56 | 14.51825 | 121.00961 | 77 ft | 45 kts | 131° |
| 2026-05-04 15:56 | 14.51630 | 121.01164 | 77 ft | 44 kts | 133° |
| 2026-05-04 15:57 | 14.51334 | 121.01463 | 184 ft | 67 kts | 134° |
| 2026-05-04 15:57 | 14.50967 | 121.01811 | 330 ft | 73 kts | 135° |
| 2026-05-04 15:57 | 14.50590 | 121.02166 | 470 ft | 73 kts | 134° |
| 2026-05-04 15:57 | 14.50236 | 121.02535 | 596 ft | 76 kts | 130° |
| 2026-05-04 15:58 | 14.49845 | 121.02956 | 659 ft | 84 kts | 130° |
| 2026-05-04 15:58 | 14.49458 | 121.03407 | 722 ft | 86 kts | 128° |
| 2026-05-04 15:58 | 14.49071 | 121.03879 | 803 ft | 85 kts | 127° |
| 2026-05-04 15:58 | 14.48591 | 121.04202 | 873 ft | 92 kts | 184° |
| 2026-05-04 15:59 | 14.48124 | 121.03697 | 849 ft | 103 kts | 247° |
| 2026-05-04 15:59 | 14.47935 | 121.02989 | 848 ft | 104 kts | 263° |
| 2026-05-04 15:59 | 14.47836 | 121.02254 | 872 ft | 103 kts | 264° |
| 2026-05-04 15:59 | 14.47699 | 121.01492 | 816 ft | 113 kts | 257° |
| 2026-05-04 16:00 | 14.47506 | 121.00713 | 798 ft | 114 kts | 257° |
| 2026-05-04 16:00 | 14.47283 | 120.99915 | 751 ft | 116 kts | 254° |
| 2026-05-04 16:00 | 14.46951 | 120.99161 | 738 ft | 112 kts | 243° |
| 2026-05-04 16:00 | 14.46556 | 120.98459 | 759 ft | 111 kts | 239° |
| 2026-05-04 16:01 | 14.46111 | 120.97779 | 700 ft | 115 kts | 234° |
| 2026-05-04 16:01 | 14.45796 | 120.97072 | 742 ft | 105 kts | 251° |
| 2026-05-04 16:01 | 14.46013 | 120.96703 | 766 ft | 93 kts | 46° |
| 2026-05-04 16:01 | 14.45888 | 120.97257 | 700 ft | 107 kts | 165° |
| 2026-05-04 16:02 | 14.45417 | 120.96806 | 649 ft | 113 kts | 294° |
| 2026-05-04 16:02 | 14.46021 | 120.96627 | 691 ft | 99 kts | 43° |
| 2026-05-04 16:02 | 14.45344 | 120.97092 | 658 ft | 120 kts | 248° |
| 2026-05-04 16:03 | 14.45739 | 120.96495 | 565 ft | 114 kts | 1° |
| 2026-05-04 16:03 | 14.46101 | 120.97027 | 591 ft | 101 kts | 110° |
| 2026-05-04 16:03 | 14.45495 | 120.97054 | 515 ft | 116 kts | 237° |
| 2026-05-04 16:03 | 14.45370 | 120.96281 | 506 ft | 112 kts | 295° |
| 2026-05-04 16:04 | 14.45963 | 120.95758 | 374 ft | 115 kts | 329° |
| 2026-05-04 16:04 | 14.47326 | 120.95344 | 360 ft | 104 kts | 46° |
| 2026-05-04 16:04 | 14.47623 | 120.96007 | 403 ft | 99 kts | 66° |
| 2026-05-04 16:05 | 14.47931 | 120.96651 | 377 ft | 103 kts | 60° |
| 2026-05-04 16:05 | 14.48299 | 120.97302 | 364 ft | 102 kts | 59° |
| 2026-05-04 16:05 | 14.48911 | 120.98421 | 326 ft | 81 kts | 60° |
| 2026-05-04 16:06 | 14.49183 | 120.98914 | 272 ft | 79 kts | 63° |
| 2026-05-04 16:06 | 14.49887 | 121.00185 | 127 ft | 64 kts | 62° |
| 2026-05-04 16:07 | 14.50153 | 121.00668 | 84 ft | 52 kts | 61° |
| 2026-05-04 16:07 | 14.50590 | 121.01466 | 77 ft | 34 kts | 58° |
| 2026-05-04 16:08 | 14.50715 | 121.01653 | 77 ft | 29 kts | 51° |
| 2026-05-04 16:08 | 14.50989 | 121.01685 | 76 ft | 13 kts | 312° |
| 2026-05-04 16:09 | 14.51144 | 121.01526 | 76 ft | 17 kts | 317° |
| 2026-05-04 16:09 | 14.51194 | 121.01473 | 77 ft | 0 kts | 313° |
| 2026-05-04 16:10 | 14.51252 | 121.01428 | 76 ft | 10 kts | 8° |
| 2026-05-04 16:11 | 14.51526 | 121.01267 | 77 ft | 22 kts | 316° |
| 2026-05-04 16:11 | 14.51656 | 121.01135 | 77 ft | 29 kts | 315° |
| 2026-05-04 16:12 | 14.52066 | 121.00706 | 77 ft | 16 kts | 317° |
| 2026-05-04 16:12 | 14.51976 | 121.00612 | 77 ft | 13 kts | 187° |
| 2026-05-04 16:13 | 14.51850 | 121.00553 | 77 ft | 9 kts | 242° |
| 2026-05-04 16:13 | 14.51784 | 121.00495 | 76 ft | 2 kts | 104° |
| 2026-05-04 16:14 | 14.51796 | 121.00528 | 77 ft | 0 kts | 66° |
| 2026-05-04 16:21 | 14.51811 | 121.00515 | 77 ft | 14 kts | 259° |
| 2026-05-04 16:22 | 14.51818 | 121.00513 | 77 ft | 28 kts | 232° |
| 2026-05-04 16:22 | 14.51825 | 121.00494 | 77 ft | 25 kts | 84° |
| 2026-05-04 16:23 | 14.51804 | 121.00500 | 77 ft | 0 kts | 238° |
| 2026-05-04 16:24 | 14.51800 | 121.00508 | 77 ft | 0 kts | 63° |